sensor_id;sensor_type;location;lat;lon;timestamp;pressure;altitude;pressure_sealevel;temperature;humidity
37368;BME280;23240;43.210;27.910;2023-04-19T00:00:26;100539.91;;;11.91;100.00
37368;BME280;23240;43.210;27.910;2023-04-19T00:02:52;100541.19;;;11.87;100.00
37368;BME280;23240;43.210;27.910;2023-04-19T00:05:18;100532.56;;;11.93;100.00
37368;BME280;23240;43.210;27.910;2023-04-19T00:07:44;100537.81;;;11.94;100.00
37368;BME280;23240;43.210;27.910;2023-04-19T00:10:11;100531.31;;;11.97;100.00
37368;BME280;23240;43.210;27.910;2023-04-19T00:12:36;100531.44;;;11.95;100.00
37368;BME280;23240;43.210;27.910;2023-04-19T00:15:01;100522.41;;;12.06;100.00
37368;BME280;23240;43.210;27.910;2023-04-19T00:17:27;100519.88;;;12.04;100.00
37368;BME280;23240;43.210;27.910;2023-04-19T00:19:53;100523.53;;;12.03;100.00
37368;BME280;23240;43.210;27.910;2023-04-19T00:22:18;100516.91;;;12.07;100.00
37368;BME280;23240;43.210;27.910;2023-04-19T00:24:43;100519.31;;;12.01;100.00
37368;BME280;23240;43.210;27.910;2023-04-19T00:27:09;100526.38;;;12.02;100.00
37368;BME280;23240;43.210;27.910;2023-04-19T00:29:34;100525.25;;;12.04;100.00
37368;BME280;23240;43.210;27.910;2023-04-19T00:31:59;100518.88;;;12.05;100.00
37368;BME280;23240;43.210;27.910;2023-04-19T00:34:25;100522.00;;;12.11;100.00
37368;BME280;23240;43.210;27.910;2023-04-19T00:36:50;100516.19;;;12.05;100.00
37368;BME280;23240;43.210;27.910;2023-04-19T00:39:15;100507.84;;;12.08;100.00
37368;BME280;23240;43.210;27.910;2023-04-19T00:41:41;100521.41;;;12.07;100.00
37368;BME280;23240;43.210;27.910;2023-04-19T00:44:06;100519.16;;;12.12;100.00
37368;BME280;23240;43.210;27.910;2023-04-19T00:46:31;100521.56;;;12.15;100.00
37368;BME280;23240;43.210;27.910;2023-04-19T00:48:57;100523.00;;;12.19;100.00
37368;BME280;23240;43.210;27.910;2023-04-19T00:51:22;100516.91;;;12.17;100.00
37368;BME280;23240;43.210;27.910;2023-04-19T00:53:47;100521.16;;;12.10;100.00
37368;BME280;23240;43.210;27.910;2023-04-19T00:56:13;100517.88;;;12.06;100.00
37368;BME280;23240;43.210;27.910;2023-04-19T00:58:39;100520.13;;;11.92;100.00
37368;BME280;23240;43.210;27.910;2023-04-19T01:01:05;100523.44;;;11.65;100.00
37368;BME280;23240;43.210;27.910;2023-04-19T01:03:30;100526.94;;;11.55;100.00
37368;BME280;23240;43.210;27.910;2023-04-19T01:05:55;100521.72;;;11.54;100.00
37368;BME280;23240;43.210;27.910;2023-04-19T01:08:21;100524.09;;;11.47;100.00
37368;BME280;23240;43.210;27.910;2023-04-19T01:10:47;100523.63;;;11.32;100.00
37368;BME280;23240;43.210;27.910;2023-04-19T01:13:12;100521.75;;;11.23;100.00
37368;BME280;23240;43.210;27.910;2023-04-19T01:15:37;100530.78;;;11.22;100.00
37368;BME280;23240;43.210;27.910;2023-04-19T01:18:03;100524.41;;;11.14;100.00
37368;BME280;23240;43.210;27.910;2023-04-19T01:20:28;100515.38;;;11.15;100.00
37368;BME280;23240;43.210;27.910;2023-04-19T01:22:53;100518.09;;;11.24;100.00
37368;BME280;23240;43.210;27.910;2023-04-19T01:25:19;100520.75;;;11.24;100.00
37368;BME280;23240;43.210;27.910;2023-04-19T01:27:44;100524.16;;;11.26;100.00
37368;BME280;23240;43.210;27.910;2023-04-19T01:30:10;100513.72;;;11.23;100.00
37368;BME280;23240;43.210;27.910;2023-04-19T01:32:35;100511.72;;;11.25;100.00
37368;BME280;23240;43.210;27.910;2023-04-19T01:35:01;100507.38;;;11.24;100.00
37368;BME280;23240;43.210;27.910;2023-04-19T01:37:26;100501.56;;;11.19;100.00
37368;BME280;23240;43.210;27.910;2023-04-19T01:39:51;100507.22;;;11.26;100.00
37368;BME280;23240;43.210;27.910;2023-04-19T01:42:17;100509.63;;;11.29;100.00
37368;BME280;23240;43.210;27.910;2023-04-19T01:44:42;100497.66;;;11.33;100.00
37368;BME280;23240;43.210;27.910;2023-04-19T01:47:07;100501.38;;;11.42;100.00
37368;BME280;23240;43.210;27.910;2023-04-19T01:49:33;100495.44;;;11.48;100.00
37368;BME280;23240;43.210;27.910;2023-04-19T01:51:58;100501.91;;;11.45;100.00
37368;BME280;23240;43.210;27.910;2023-04-19T01:54:24;100497.97;;;11.49;100.00
37368;BME280;23240;43.210;27.910;2023-04-19T01:56:50;100500.25;;;11.54;100.00
37368;BME280;23240;43.210;27.910;2023-04-19T01:59:16;100501.69;;;11.58;100.00
37368;BME280;23240;43.210;27.910;2023-04-19T02:01:41;100507.06;;;11.68;100.00
37368;BME280;23240;43.210;27.910;2023-04-19T02:04:07;100507.09;;;11.77;100.00
37368;BME280;23240;43.210;27.910;2023-04-19T02:06:32;100511.03;;;11.73;100.00
37368;BME280;23240;43.210;27.910;2023-04-19T02:08:57;100509.06;;;11.66;100.00
37368;BME280;23240;43.210;27.910;2023-04-19T02:11:23;100510.44;;;11.70;100.00
37368;BME280;23240;43.210;27.910;2023-04-19T02:13:48;100511.47;;;11.78;100.00
37368;BME280;23240;43.210;27.910;2023-04-19T02:16:13;100497.78;;;11.81;100.00
37368;BME280;23240;43.210;27.910;2023-04-19T02:18:39;100491.88;;;11.88;100.00
37368;BME280;23240;43.210;27.910;2023-04-19T02:21:06;100495.72;;;11.95;100.00
37368;BME280;23240;43.210;27.910;2023-04-19T02:23:31;100485.53;;;11.98;100.00
37368;BME280;23240;43.210;27.910;2023-04-19T02:25:57;100486.53;;;11.97;100.00
37368;BME280;23240;43.210;27.910;2023-04-19T02:28:22;100483.41;;;11.92;100.00
37368;BME280;23240;43.210;27.910;2023-04-19T02:30:47;100487.22;;;11.90;100.00
37368;BME280;23240;43.210;27.910;2023-04-19T02:33:13;100481.28;;;11.86;100.00
37368;BME280;23240;43.210;27.910;2023-04-19T02:35:39;100486.25;;;11.91;100.00
37368;BME280;23240;43.210;27.910;2023-04-19T02:38:04;100483.97;;;11.96;100.00
37368;BME280;23240;43.210;27.910;2023-04-19T02:40:29;100485.66;;;11.97;100.00
37368;BME280;23240;43.210;27.910;2023-04-19T02:42:55;100487.94;;;11.92;100.00
37368;BME280;23240;43.210;27.910;2023-04-19T02:45:20;100478.31;;;11.89;100.00
37368;BME280;23240;43.210;27.910;2023-04-19T02:47:46;100477.19;;;11.92;100.00
37368;BME280;23240;43.210;27.910;2023-04-19T02:50:11;100473.81;;;11.90;100.00
37368;BME280;23240;43.210;27.910;2023-04-19T02:52:37;100468.31;;;11.91;100.00
37368;BME280;23240;43.210;27.910;2023-04-19T02:55:03;100476.09;;;11.94;100.00
37368;BME280;23240;43.210;27.910;2023-04-19T02:57:29;100474.94;;;11.97;100.00
37368;BME280;23240;43.210;27.910;2023-04-19T02:59:54;100470.41;;;11.97;100.00
37368;BME280;23240;43.210;27.910;2023-04-19T03:02:20;100470.13;;;12.00;100.00
37368;BME280;23240;43.210;27.910;2023-04-19T03:04:45;100478.63;;;12.05;100.00
37368;BME280;23240;43.210;27.910;2023-04-19T03:07:11;100471.25;;;12.07;100.00
37368;BME280;23240;43.210;27.910;2023-04-19T03:09:37;100471.84;;;12.01;100.00
37368;BME280;23240;43.210;27.910;2023-04-19T03:12:02;100471.84;;;12.01;100.00
37368;BME280;23240;43.210;27.910;2023-04-19T03:14:27;100477.78;;;11.95;100.00
37368;BME280;23240;43.210;27.910;2023-04-19T03:16:53;100473.41;;;11.94;100.00
37368;BME280;23240;43.210;27.910;2023-04-19T03:19:18;100478.63;;;11.96;100.00
37368;BME280;23240;43.210;27.910;2023-04-19T03:21:43;100472.25;;;11.97;100.00
37368;BME280;23240;43.210;27.910;2023-04-19T03:24:09;100478.31;;;11.99;100.00
37368;BME280;23240;43.210;27.910;2023-04-19T03:26:34;100476.63;;;11.98;100.00
37368;BME280;23240;43.210;27.910;2023-04-19T03:28:59;100476.19;;;11.93;100.00
37368;BME280;23240;43.210;27.910;2023-04-19T03:31:25;100475.19;;;11.84;100.00
37368;BME280;23240;43.210;27.910;2023-04-19T03:33:50;100466.16;;;11.75;100.00
37368;BME280;23240;43.210;27.910;2023-04-19T03:36:16;100470.50;;;11.67;100.00
37368;BME280;23240;43.210;27.910;2023-04-19T03:38:41;100471.19;;;11.69;100.00
37368;BME280;23240;43.210;27.910;2023-04-19T03:41:21;100468.81;;;11.75;100.00
37368;BME280;23240;43.210;27.910;2023-04-19T03:43:47;100468.69;;;11.77;100.00
37368;BME280;23240;43.210;27.910;2023-04-19T03:46:12;100472.06;;;11.79;100.00
37368;BME280;23240;43.210;27.910;2023-04-19T03:48:38;100474.63;;;11.80;100.00
37368;BME280;23240;43.210;27.910;2023-04-19T03:51:03;100476.06;;;11.85;100.00
37368;BME280;23240;43.210;27.910;2023-04-19T03:53:28;100471.41;;;11.87;100.00
37368;BME280;23240;43.210;27.910;2023-04-19T03:55:54;100471.56;;;11.95;100.00
37368;BME280;23240;43.210;27.910;2023-04-19T03:58:19;100484.13;;;11.94;100.00
37368;BME280;23240;43.210;27.910;2023-04-19T04:00:44;100476.06;;;11.85;100.00
37368;BME280;23240;43.210;27.910;2023-04-19T04:03:10;100474.03;;;11.77;100.00
37368;BME280;23240;43.210;27.910;2023-04-19T04:05:35;100476.31;;;11.81;100.00
37368;BME280;23240;43.210;27.910;2023-04-19T04:08:00;100473.81;;;11.90;100.00
37368;BME280;23240;43.210;27.910;2023-04-19T04:10:26;100477.19;;;12.01;100.00
37368;BME280;23240;43.210;27.910;2023-04-19T04:12:51;100476.63;;;11.98;100.00
37368;BME280;23240;43.210;27.910;2023-04-19T04:15:16;100475.22;;;12.03;100.00
37368;BME280;23240;43.210;27.910;2023-04-19T04:17:42;100477.19;;;12.01;100.00
37368;BME280;23240;43.210;27.910;2023-04-19T04:20:07;100483.69;;;11.99;100.00
37368;BME280;23240;43.210;27.910;2023-04-19T04:22:33;100478.31;;;11.99;100.00
37368;BME280;23240;43.210;27.910;2023-04-19T04:24:58;100472.09;;;12.08;100.00
37368;BME280;23240;43.210;27.910;2023-04-19T04:27:25;100476.22;;;12.12;100.00
37368;BME280;23240;43.210;27.910;2023-04-19T04:29:50;100476.50;;;12.19;100.00
37368;BME280;23240;43.210;27.910;2023-04-19T04:32:15;100480.03;;;12.19;100.00
37368;BME280;23240;43.210;27.910;2023-04-19T04:34:42;100478.63;;;12.25;100.00
37368;BME280;23240;43.210;27.910;2023-04-19T04:37:08;100479.72;;;12.22;100.00
37368;BME280;23240;43.210;27.910;2023-04-19T04:39:35;100474.66;;;12.19;100.00
37368;BME280;23240;43.210;27.910;2023-04-19T04:42:03;100477.63;;;12.16;100.00
37368;BME280;23240;43.210;27.910;2023-04-19T04:44:29;100481.44;;;12.23;100.00
37368;BME280;23240;43.210;27.910;2023-04-19T04:46:54;100476.34;;;12.20;100.00
37368;BME280;23240;43.210;27.910;2023-04-19T04:49:20;100478.47;;;12.26;100.00
37368;BME280;23240;43.210;27.910;2023-04-19T04:51:46;100482.56;;;12.30;100.00
37368;BME280;23240;43.210;27.910;2023-04-19T04:54:11;100482.28;;;12.24;100.00
37368;BME280;23240;43.210;27.910;2023-04-19T04:56:36;100485.09;;;12.22;100.00
37368;BME280;23240;43.210;27.910;2023-04-19T04:59:02;100481.16;;;12.26;100.00
37368;BME280;23240;43.210;27.910;2023-04-19T05:01:27;100483.84;;;12.26;100.00
37368;BME280;23240;43.210;27.910;2023-04-19T05:03:52;100481.72;;;12.20;100.00
37368;BME280;23240;43.210;27.910;2023-04-19T05:06:18;100486.81;;;12.14;100.00
37368;BME280;23240;43.210;27.910;2023-04-19T05:08:43;100480.88;;;12.10;100.00
37368;BME280;23240;43.210;27.910;2023-04-19T05:11:09;100483.16;;;12.05;100.00
37368;BME280;23240;43.210;27.910;2023-04-19T05:13:35;100481.72;;;12.01;100.00
37368;BME280;23240;43.210;27.910;2023-04-19T05:16:00;100486.66;;;11.96;100.00
37368;BME280;23240;43.210;27.910;2023-04-19T05:18:25;100488.50;;;11.95;100.00
37368;BME280;23240;43.210;27.910;2023-04-19T05:20:51;100493.56;;;11.98;100.00
37368;BME280;23240;43.210;27.910;2023-04-19T05:23:16;100495.31;;;12.09;100.00
37368;BME280;23240;43.210;27.910;2023-04-19T05:25:42;100494.31;;;12.10;100.00
37368;BME280;23240;43.210;27.910;2023-04-19T05:28:08;100492.63;;;12.19;100.00
37368;BME280;23240;43.210;27.910;2023-04-19T05:30:33;100497.00;;;12.29;100.00
37368;BME280;23240;43.210;27.910;2023-04-19T05:32:59;100493.28;;;12.40;100.00
37368;BME280;23240;43.210;27.910;2023-04-19T05:35:24;100494.88;;;12.33;100.00
37368;BME280;23240;43.210;27.910;2023-04-19T05:37:50;100490.19;;;12.35;100.00
37368;BME280;23240;43.210;27.910;2023-04-19T05:40:15;100491.31;;;12.42;100.00
37368;BME280;23240;43.210;27.910;2023-04-19T05:42:41;100488.19;;;12.47;100.00
37368;BME280;23240;43.210;27.910;2023-04-19T05:45:07;100495.28;;;12.48;100.00
37368;BME280;23240;43.210;27.910;2023-04-19T05:47:33;100493.03;;;12.43;100.00
37368;BME280;23240;43.210;27.910;2023-04-19T05:49:58;100504.31;;;12.37;100.00
37368;BME280;23240;43.210;27.910;2023-04-19T05:52:23;100498.09;;;12.37;100.00
37368;BME280;23240;43.210;27.910;2023-04-19T05:54:49;100492.44;;;12.40;100.00
37368;BME280;23240;43.210;27.910;2023-04-19T05:57:14;100499.50;;;12.41;100.00
37368;BME280;23240;43.210;27.910;2023-04-19T05:59:40;100499.78;;;12.38;100.00
37368;BME280;23240;43.210;27.910;2023-04-19T06:02:06;100505.31;;;12.46;100.00
37368;BME280;23240;43.210;27.910;2023-04-19T06:04:31;100492.19;;;12.23;100.00
37368;BME280;23240;43.210;27.910;2023-04-19T06:06:56;100500.38;;;12.22;100.00
37368;BME280;23240;43.210;27.910;2023-04-19T06:09:22;100500.25;;;12.23;100.00
37368;BME280;23240;43.210;27.910;2023-04-19T06:11:47;100506.16;;;12.27;100.00
37368;BME280;23240;43.210;27.910;2023-04-19T06:14:12;100504.31;;;12.08;100.00
37368;BME280;23240;43.210;27.910;2023-04-19T06:16:38;100504.31;;;12.08;100.00
37368;BME280;23240;43.210;27.910;2023-04-19T06:19:04;100497.09;;;11.99;100.00
37368;BME280;23240;43.210;27.910;2023-04-19T06:21:30;100501.19;;;11.83;100.00
37368;BME280;23240;43.210;27.910;2023-04-19T06:23:55;100510.03;;;11.74;100.00
37368;BME280;23240;43.210;27.910;2023-04-19T06:26:21;100514.00;;;11.70;100.00
37368;BME280;23240;43.210;27.910;2023-04-19T06:28:46;100513.00;;;11.62;100.00
37368;BME280;23240;43.210;27.910;2023-04-19T06:31:11;100512.41;;;11.58;100.00
37368;BME280;23240;43.210;27.910;2023-04-19T06:33:37;100519.09;;;11.73;100.00
37368;BME280;23240;43.210;27.910;2023-04-19T06:36:02;100523.09;;;11.89;100.00
37368;BME280;23240;43.210;27.910;2023-04-19T06:38:28;100525.50;;;11.82;100.00
37368;BME280;23240;43.210;27.910;2023-04-19T06:40:53;100526.94;;;11.96;100.00
37368;BME280;23240;43.210;27.910;2023-04-19T06:43:19;100528.34;;;12.00;100.00
37368;BME280;23240;43.210;27.910;2023-04-19T06:45:45;100529.78;;;12.14;100.00
37368;BME280;23240;43.210;27.910;2023-04-19T06:48:10;100528.06;;;12.22;100.00
37368;BME280;23240;43.210;27.910;2023-04-19T06:50:36;100527.66;;;12.27;100.00
37368;BME280;23240;43.210;27.910;2023-04-19T06:53:01;100530.31;;;12.27;100.00
37368;BME280;23240;43.210;27.910;2023-04-19T06:55:26;100531.47;;;12.34;100.00
37368;BME280;23240;43.210;27.910;2023-04-19T06:57:52;100529.50;;;12.26;100.00
37368;BME280;23240;43.210;27.910;2023-04-19T07:00:17;100525.38;;;12.22;100.00
37368;BME280;23240;43.210;27.910;2023-04-19T07:02:43;100537.38;;;12.38;100.00
37368;BME280;23240;43.210;27.910;2023-04-19T07:05:08;100533.84;;;12.47;100.00
37368;BME280;23240;43.210;27.910;2023-04-19T07:07:33;100542.19;;;12.63;100.00
37368;BME280;23240;43.210;27.910;2023-04-19T07:10:02;100531.44;;;12.73;100.00
37368;BME280;23240;43.210;27.910;2023-04-19T07:12:27;100535.34;;;12.98;100.00
37368;BME280;23240;43.210;27.910;2023-04-19T07:14:52;100534.88;;;13.12;100.00
37368;BME280;23240;43.210;27.910;2023-04-19T07:17:21;100532.44;;;13.19;100.00
37368;BME280;23240;43.210;27.910;2023-04-19T07:19:46;100534.63;;;13.43;100.00
37368;BME280;23240;43.210;27.910;2023-04-19T07:22:12;100530.38;;;13.68;100.00
37368;BME280;23240;43.210;27.910;2023-04-19T07:24:38;100541.03;;;13.69;100.00
37368;BME280;23240;43.210;27.910;2023-04-19T07:27:05;100537.75;;;13.93;100.00
37368;BME280;23240;43.210;27.910;2023-04-19T07:29:33;100541.97;;;13.96;100.00
37368;BME280;23240;43.210;27.910;2023-04-19T07:31:58;100545.06;;;14.01;100.00
37368;BME280;23240;43.210;27.910;2023-04-19T07:34:25;100541.44;;;13.92;100.00
37368;BME280;23240;43.210;27.910;2023-04-19T07:36:50;100543.28;;;13.92;100.00
37368;BME280;23240;43.210;27.910;2023-04-19T07:39:16;100549.38;;;13.94;100.00
37368;BME280;23240;43.210;27.910;2023-04-19T07:41:41;100546.00;;;14.09;100.00
37368;BME280;23240;43.210;27.910;2023-04-19T07:44:06;100548.88;;;14.08;100.00
37368;BME280;23240;43.210;27.910;2023-04-19T07:46:32;100558.03;;;13.70;100.00
37368;BME280;23240;43.210;27.910;2023-04-19T07:48:57;100552.69;;;13.60;100.00
37368;BME280;23240;43.210;27.910;2023-04-19T07:51:22;100555.19;;;13.34;100.00
37368;BME280;23240;43.210;27.910;2023-04-19T07:53:48;100557.06;;;13.24;100.00
37368;BME280;23240;43.210;27.910;2023-04-19T07:56:14;100561.34;;;13.07;100.00
37368;BME280;23240;43.210;27.910;2023-04-19T07:58:39;100567.06;;;12.84;100.00
37368;BME280;23240;43.210;27.910;2023-04-19T08:01:05;100571.31;;;12.77;100.00
37368;BME280;23240;43.210;27.910;2023-04-19T08:03:35;100570.34;;;12.59;100.00
37368;BME280;23240;43.210;27.910;2023-04-19T08:06:01;100573.88;;;12.59;100.00
37368;BME280;23240;43.210;27.910;2023-04-19T08:08:26;100574.44;;;12.53;100.00
37368;BME280;23240;43.210;27.910;2023-04-19T08:10:52;100574.44;;;12.44;100.00
37368;BME280;23240;43.210;27.910;2023-04-19T08:13:19;100579.81;;;12.44;100.00
37368;BME280;23240;43.210;27.910;2023-04-19T08:15:44;100583.50;;;12.33;100.00
37368;BME280;23240;43.210;27.910;2023-04-19T08:18:10;100578.41;;;12.20;100.00
37368;BME280;23240;43.210;27.910;2023-04-19T08:20:35;100577.81;;;12.17;100.00
37368;BME280;23240;43.210;27.910;2023-04-19T08:23:00;100584.44;;;12.03;100.00
37368;BME280;23240;43.210;27.910;2023-04-19T08:25:26;100592.06;;;11.98;100.00
37368;BME280;23240;43.210;27.910;2023-04-19T08:27:55;100590.94;;;12.00;100.00
37368;BME280;23240;43.210;27.910;2023-04-19T08:30:22;100591.53;;;12.04;100.00
37368;BME280;23240;43.210;27.910;2023-04-19T08:32:47;100588.50;;;11.88;100.00
37368;BME280;23240;43.210;27.910;2023-04-19T08:35:13;100596.69;;;11.86;100.00
37368;BME280;23240;43.210;27.910;2023-04-19T08:37:38;100589.22;;;11.90;100.00
37368;BME280;23240;43.210;27.910;2023-04-19T08:40:04;100597.41;;;11.98;100.00
37368;BME280;23240;43.210;27.910;2023-04-19T08:42:30;100586.53;;;11.90;100.00
37368;BME280;23240;43.210;27.910;2023-04-19T08:44:56;100590.91;;;11.91;100.00
37368;BME280;23240;43.210;27.910;2023-04-19T08:47:24;100592.44;;;11.83;100.00
37368;BME280;23240;43.210;27.910;2023-04-19T08:49:49;100588.81;;;11.94;100.00
37368;BME280;23240;43.210;27.910;2023-04-19T08:52:15;100585.69;;;11.99;100.00
37368;BME280;23240;43.210;27.910;2023-04-19T08:54:41;100585.19;;;12.15;100.00
37368;BME280;23240;43.210;27.910;2023-04-19T08:57:07;100581.78;;;12.32;100.00
37368;BME280;23240;43.210;27.910;2023-04-19T08:59:33;100581.25;;;12.48;100.00
37368;BME280;23240;43.210;27.910;2023-04-19T09:02:00;100583.94;;;12.57;100.00
37368;BME280;23240;43.210;27.910;2023-04-19T09:04:25;100579.53;;;12.66;100.00
37368;BME280;23240;43.210;27.910;2023-04-19T09:06:51;100582.91;;;12.78;100.00
37368;BME280;23240;43.210;27.910;2023-04-19T09:09:18;100582.03;;;12.97;100.00
37368;BME280;23240;43.210;27.910;2023-04-19T09:11:43;100573.78;;;13.18;100.00
37368;BME280;23240;43.210;27.910;2023-04-19T09:14:10;100572.38;;;13.13;100.00
37368;BME280;23240;43.210;27.910;2023-04-19T09:16:36;100573.63;;;13.29;100.00
37368;BME280;23240;43.210;27.910;2023-04-19T09:19:02;100565.94;;;13.71;100.00
37368;BME280;23240;43.210;27.910;2023-04-19T09:21:28;100571.28;;;13.81;100.00
37368;BME280;23240;43.210;27.910;2023-04-19T09:23:53;100567.84;;;13.88;100.00
37368;BME280;23240;43.210;27.910;2023-04-19T09:26:19;100573.63;;;13.66;100.00
37368;BME280;23240;43.210;27.910;2023-04-19T09:29:03;100571.38;;;13.61;100.00
37368;BME280;23240;43.210;27.910;2023-04-19T09:31:29;100574.94;;;13.52;100.00
37368;BME280;23240;43.210;27.910;2023-04-19T09:33:55;100584.78;;;13.34;100.00
37368;BME280;23240;43.210;27.910;2023-04-19T09:36:31;100574.63;;;13.18;100.00
37368;BME280;23240;43.210;27.910;2023-04-19T09:38:56;100573.78;;;13.27;100.00
37368;BME280;23240;43.210;27.910;2023-04-19T09:41:22;100579.16;;;13.27;100.00
37368;BME280;23240;43.210;27.910;2023-04-19T09:43:48;100575.06;;;13.23;100.00
37368;BME280;23240;43.210;27.910;2023-04-19T09:46:32;100581.03;;;13.07;100.00
37368;BME280;23240;43.210;27.910;2023-04-19T09:51:54;100576.38;;;12.80;100.00
37368;BME280;23240;43.210;27.910;2023-04-19T09:54:24;100584.06;;;12.56;100.00
37368;BME280;23240;43.210;27.910;2023-04-19T09:56:51;100587.16;;;12.51;100.00
37368;BME280;23240;43.210;27.910;2023-04-19T09:59:17;100588.59;;;12.46;100.00
37368;BME280;23240;43.210;27.910;2023-04-19T10:04:11;100587.31;;;12.69;100.00
37368;BME280;23240;43.210;27.910;2023-04-19T10:06:37;100589.84;;;12.80;100.00
37368;BME280;23240;43.210;27.910;2023-04-19T10:09:03;100584.06;;;12.56;100.00
37368;BME280;23240;43.210;27.910;2023-04-19T10:11:33;100582.50;;;12.63;100.00
37368;BME280;23240;43.210;27.910;2023-04-19T10:14:05;100576.25;;;12.92;100.00
37368;BME280;23240;43.210;27.910;2023-04-19T10:16:31;100573.81;;;13.08;100.00
37368;BME280;23240;43.210;27.910;2023-04-19T10:18:57;100579.03;;;13.09;100.00
37368;BME280;23240;43.210;27.910;2023-04-19T10:21:22;100565.31;;;13.22;100.00
37368;BME280;23240;43.210;27.910;2023-04-19T10:23:48;100576.75;;;13.24;100.00
37368;BME280;23240;43.210;27.910;2023-04-19T10:26:14;100570.53;;;13.61;100.00
37368;BME280;23240;43.210;27.910;2023-04-19T10:28:40;100567.53;;;13.64;100.00
37368;BME280;23240;43.210;27.910;2023-04-19T10:31:05;100572.06;;;13.36;100.00
37368;BME280;23240;43.210;27.910;2023-04-19T10:33:35;100572.94;;;13.17;100.00
37368;BME280;23240;43.210;27.910;2023-04-19T10:36:01;100577.78;;;13.04;100.00
37368;BME280;23240;43.210;27.910;2023-04-19T10:38:36;100571.53;;;13.23;100.00
37368;BME280;23240;43.210;27.910;2023-04-19T10:41:02;100577.47;;;13.26;100.00
37368;BME280;23240;43.210;27.910;2023-04-19T10:43:29;100578.28;;;13.36;100.00
37368;BME280;23240;43.210;27.910;2023-04-19T10:45:58;100579.00;;;13.66;100.00
37368;BME280;23240;43.210;27.910;2023-04-19T10:51:16;100574.69;;;13.83;100.00
37368;BME280;23240;43.210;27.910;2023-04-19T10:56:11;100579.16;;;13.65;100.00
37368;BME280;23240;43.210;27.910;2023-04-19T11:01:33;100574.84;;;13.99;100.00
37368;BME280;23240;43.210;27.910;2023-04-19T11:04:01;100568.91;;;13.96;100.00
37368;BME280;23240;43.210;27.910;2023-04-19T11:06:26;100566.72;;;13.81;100.00
37368;BME280;23240;43.210;27.910;2023-04-19T11:08:52;100572.47;;;13.69;100.00
37368;BME280;23240;43.210;27.910;2023-04-19T11:11:18;100571.81;;;13.84;100.00
37368;BME280;23240;43.210;27.910;2023-04-19T11:13:43;100563.34;;;13.79;100.00
37368;BME280;23240;43.210;27.910;2023-04-19T11:16:11;100569.44;;;13.54;100.00
37368;BME280;23240;43.210;27.910;2023-04-19T11:18:36;100574.63;;;13.28;100.00
37368;BME280;23240;43.210;27.910;2023-04-19T11:21:01;100570.94;;;13.09;100.00
37368;BME280;23240;43.210;27.910;2023-04-19T11:23:27;100582.75;;;12.89;100.00
37368;BME280;23240;43.210;27.910;2023-04-19T11:25:53;100584.75;;;12.87;100.00
37368;BME280;23240;43.210;27.910;2023-04-19T11:28:19;100583.00;;;13.15;100.00
37368;BME280;23240;43.210;27.910;2023-04-19T11:30:45;100576.44;;;13.37;100.00
37368;BME280;23240;43.210;27.910;2023-04-19T11:33:11;100576.88;;;13.32;100.00
37368;BME280;23240;43.210;27.910;2023-04-19T11:35:37;100581.84;;;13.18;100.00
37368;BME280;23240;43.210;27.910;2023-04-19T11:38:02;100584.84;;;13.05;100.00
37368;BME280;23240;43.210;27.910;2023-04-19T11:40:29;100582.31;;;13.03;100.00
37368;BME280;23240;43.210;27.910;2023-04-19T11:42:58;100577.81;;;12.65;100.00
37368;BME280;23240;43.210;27.910;2023-04-19T11:45:28;100584.34;;;12.72;100.00
37368;BME280;23240;43.210;27.910;2023-04-19T11:47:53;100593.38;;;12.71;100.00
37368;BME280;23240;43.210;27.910;2023-04-19T11:50:38;100592.09;;;12.66;100.00
37368;BME280;23240;43.210;27.910;2023-04-19T11:53:17;100588.00;;;12.61;100.00
37368;BME280;23240;43.210;27.910;2023-04-19T11:55:46;100586.19;;;12.62;100.00
37368;BME280;23240;43.210;27.910;2023-04-19T11:58:27;100584.19;;;12.74;100.00
37368;BME280;23240;43.210;27.910;2023-04-19T12:01:01;100577.00;;;12.45;100.00
37368;BME280;23240;43.210;27.910;2023-04-19T12:03:28;100579.66;;;12.35;100.00
37368;BME280;23240;43.210;27.910;2023-04-19T12:08:28;100578.97;;;12.72;100.00
37368;BME280;23240;43.210;27.910;2023-04-19T12:10:55;100569.91;;;12.54;100.00
37368;BME280;23240;43.210;27.910;2023-04-19T12:13:21;100576.69;;;12.77;100.00
37368;BME280;23240;43.210;27.910;2023-04-19T12:15:46;100569.56;;;13.05;100.00
37368;BME280;23240;43.210;27.910;2023-04-19T12:18:13;100562.25;;;13.45;100.00
37368;BME280;23240;43.210;27.910;2023-04-19T12:20:42;100562.28;;;13.90;100.00
37368;BME280;23240;43.210;27.910;2023-04-19T12:23:08;100558.56;;;14.36;100.00
37368;BME280;23240;43.210;27.910;2023-04-19T12:25:37;100545.09;;;14.72;100.00
37368;BME280;23240;43.210;27.910;2023-04-19T12:28:03;100559.47;;;14.45;100.00
37368;BME280;23240;43.210;27.910;2023-04-19T12:30:28;100553.09;;;14.28;100.00
37368;BME280;23240;43.210;27.910;2023-04-19T12:32:54;100547.41;;;14.49;100.00
37368;BME280;23240;43.210;27.910;2023-04-19T12:35:20;100540.63;;;14.63;100.00
37368;BME280;23240;43.210;27.910;2023-04-19T12:37:46;100550.31;;;14.38;100.00
37368;BME280;23240;43.210;27.910;2023-04-19T12:40:12;100543.59;;;14.52;100.00